sensor_id;sensor_type;location;lat;lon;timestamp;pressure;altitude;pressure_sealevel;temperature;humidity
75438;BME280;64015;49.392;15.582;2023-04-06T00:00:48;95999.69;;;-4.14;89.65
75438;BME280;64015;49.392;15.582;2023-04-06T00:03:17;95995.34;;;-4.13;89.71
75438;BME280;64015;49.392;15.582;2023-04-06T00:05:43;95992.31;;;-4.17;90.06
75438;BME280;64015;49.392;15.582;2023-04-06T00:08:08;95996.03;;;-4.19;89.92
75438;BME280;64015;49.392;15.582;2023-04-06T00:10:34;95991.53;;;-4.17;89.95
75438;BME280;64015;49.392;15.582;2023-04-06T00:13:00;95994.88;;;-4.17;90.05
75438;BME280;64015;49.392;15.582;2023-04-06T00:15:26;95984.19;;;-4.28;90.43
75438;BME280;64015;49.392;15.582;2023-04-06T00:17:52;95990.63;;;-4.32;90.62
75438;BME280;64015;49.392;15.582;2023-04-06T00:20:19;95986.44;;;-4.33;91.43
75438;BME280;64015;49.392;15.582;2023-04-06T00:22:44;95990.31;;;-4.29;90.95
75438;BME280;64015;49.392;15.582;2023-04-06T00:35:48;95977.69;;;-4.47;90.94
75438;BME280;64015;49.392;15.582;2023-04-06T00:38:17;95972.06;;;-4.51;91.36
75438;BME280;64015;49.392;15.582;2023-04-06T00:40:43;95972.38;;;-4.54;91.95
75438;BME280;64015;49.392;15.582;2023-04-06T00:43:13;95973.38;;;-4.55;91.88
75438;BME280;64015;49.392;15.582;2023-04-06T00:45:39;95969.19;;;-4.56;91.72
75438;BME280;64015;49.392;15.582;2023-04-06T00:48:06;95971.78;;;-4.56;91.42
75438;BME280;64015;49.392;15.582;2023-04-06T00:50:31;95975.97;;;-4.55;91.89
75438;BME280;64015;49.392;15.582;2023-04-06T00:52:58;95963.25;;;-4.56;91.45
75438;BME280;64015;49.392;15.582;2023-04-06T00:55:26;95971.47;;;-4.61;91.54
75438;BME280;64015;49.392;15.582;2023-04-06T00:57:52;95967.63;;;-4.65;91.50
75438;BME280;64015;49.392;15.582;2023-04-06T01:00:18;95971.00;;;-4.64;91.82
75438;BME280;64015;49.392;15.582;2023-04-06T01:02:44;95964.41;;;-4.67;91.94
75438;BME280;64015;49.392;15.582;2023-04-06T01:05:11;95972.47;;;-4.70;91.53
75438;BME280;64015;49.392;15.582;2023-04-06T01:07:36;95973.75;;;-4.66;91.73
75438;BME280;64015;49.392;15.582;2023-04-06T01:10:03;95971.03;;;-4.72;91.94
75438;BME280;64015;49.392;15.582;2023-04-06T01:12:29;95968.44;;;-4.72;91.80
75438;BME280;64015;49.392;15.582;2023-04-06T01:14:55;95968.81;;;-4.75;92.15
75438;BME280;64015;49.392;15.582;2023-04-06T01:17:21;95974.59;;;-4.81;91.94
75438;BME280;64015;49.392;15.582;2023-04-06T01:19:47;95973.63;;;-4.80;91.88
75438;BME280;64015;49.392;15.582;2023-04-06T01:22:16;95962.25;;;-4.86;92.08
75438;BME280;64015;49.392;15.582;2023-04-06T01:24:42;95962.56;;;-4.89;92.48
75438;BME280;64015;49.392;15.582;2023-04-06T01:27:07;95960.97;;;-4.90;92.39
75438;BME280;64015;49.392;15.582;2023-04-06T01:29:33;95964.69;;;-4.93;92.17
75438;BME280;64015;49.392;15.582;2023-04-06T01:31:59;95964.84;;;-4.94;92.35
75438;BME280;64015;49.392;15.582;2023-04-06T01:34:24;95962.94;;;-4.92;92.71
75438;BME280;64015;49.392;15.582;2023-04-06T01:36:50;95970.31;;;-4.97;92.16
75438;BME280;64015;49.392;15.582;2023-04-06T01:39:16;95962.44;;;-4.96;92.25
75438;BME280;64015;49.392;15.582;2023-04-06T01:41:42;95969.03;;;-4.93;92.14
75438;BME280;64015;49.392;15.582;2023-04-06T01:44:07;95964.38;;;-4.98;91.90
75438;BME280;64015;49.392;15.582;2023-04-06T01:46:33;95952.34;;;-5.05;92.66
75438;BME280;64015;49.392;15.582;2023-04-06T01:48:58;95957.16;;;-5.02;92.18
75438;BME280;64015;49.392;15.582;2023-04-06T01:51:24;95950.09;;;-5.08;92.02
75438;BME280;64015;49.392;15.582;2023-04-06T01:53:51;95960.88;;;-5.05;93.31
75438;BME280;64015;49.392;15.582;2023-04-06T01:56:17;95955.44;;;-5.10;93.27
75438;BME280;64015;49.392;15.582;2023-04-06T01:58:42;95961.69;;;-5.12;93.15
75438;BME280;64015;49.392;15.582;2023-04-06T02:01:08;95963.31;;;-5.11;93.30
75438;BME280;64015;49.392;15.582;2023-04-06T02:03:34;95956.06;;;-5.16;93.54
75438;BME280;64015;49.392;15.582;2023-04-06T02:06:00;95956.88;;;-5.15;93.73
75438;BME280;64015;49.392;15.582;2023-04-06T02:08:26;95961.22;;;-5.16;93.46
75438;BME280;64015;49.392;15.582;2023-04-06T02:10:51;95963.94;;;-5.17;93.16
75438;BME280;64015;49.392;15.582;2023-04-06T02:13:17;95967.47;;;-5.18;93.29
75438;BME280;64015;49.392;15.582;2023-04-06T02:15:43;95964.63;;;-5.23;93.33
75438;BME280;64015;49.392;15.582;2023-04-06T02:18:08;95954.81;;;-5.28;93.31
75438;BME280;64015;49.392;15.582;2023-04-06T02:20:35;95966.22;;;-5.22;93.41
75438;BME280;64015;49.392;15.582;2023-04-06T02:23:01;95957.38;;;-5.28;93.66
75438;BME280;64015;49.392;15.582;2023-04-06T02:25:26;95946.94;;;-5.27;93.84
75438;BME280;64015;49.392;15.582;2023-04-06T02:27:53;95958.66;;;-5.24;93.71
75438;BME280;64015;49.392;15.582;2023-04-06T02:30:19;95956.59;;;-5.29;94.00
75438;BME280;64015;49.392;15.582;2023-04-06T02:32:45;95956.75;;;-5.30;93.84
75438;BME280;64015;49.392;15.582;2023-04-06T02:35:11;95955.00;;;-5.30;93.70
75438;BME280;64015;49.392;15.582;2023-04-06T02:37:36;95957.75;;;-5.39;94.04
75438;BME280;64015;49.392;15.582;2023-04-06T02:40:02;95961.13;;;-5.39;93.97
75438;BME280;64015;49.392;15.582;2023-04-06T02:42:28;95959.00;;;-5.35;93.50
75438;BME280;64015;49.392;15.582;2023-04-06T02:44:54;95960.16;;;-5.38;93.20
75438;BME280;64015;49.392;15.582;2023-04-06T02:47:19;95960.78;;;-5.44;93.50
75438;BME280;64015;49.392;15.582;2023-04-06T02:49:45;95962.25;;;-5.41;93.78
75438;BME280;64015;49.392;15.582;2023-04-06T02:52:11;95957.25;;;-5.43;93.50
75438;BME280;64015;49.392;15.582;2023-04-06T02:54:37;95961.91;;;-5.46;93.95
75438;BME280;64015;49.392;15.582;2023-04-06T02:57:02;95963.06;;;-5.49;94.31
75438;BME280;64015;49.392;15.582;2023-04-06T02:59:28;95954.06;;;-5.53;94.24
75438;BME280;64015;49.392;15.582;2023-04-06T03:01:54;95951.03;;;-5.56;94.70
75438;BME280;64015;49.392;15.582;2023-04-06T03:04:19;95954.22;;;-5.54;94.17
75438;BME280;64015;49.392;15.582;2023-04-06T03:06:47;95960.81;;;-5.52;94.17
75438;BME280;64015;49.392;15.582;2023-04-06T03:09:13;95954.38;;;-5.56;93.88
75438;BME280;64015;49.392;15.582;2023-04-06T03:11:39;95961.78;;;-5.53;93.92
75438;BME280;64015;49.392;15.582;2023-04-06T03:14:05;95955.38;;;-5.57;93.57
75438;BME280;64015;49.392;15.582;2023-04-06T03:16:31;95959.88;;;-5.59;93.87
75438;BME280;64015;49.392;15.582;2023-04-06T03:18:56;95960.97;;;-5.61;93.94
75438;BME280;64015;49.392;15.582;2023-04-06T03:21:22;95967.25;;;-5.64;94.65
75438;BME280;64015;49.392;15.582;2023-04-06T03:23:48;95971.13;;;-5.68;94.50
75438;BME280;64015;49.392;15.582;2023-04-06T03:26:16;95967.09;;;-5.71;95.04
75438;BME280;64015;49.392;15.582;2023-04-06T03:28:42;95967.91;;;-5.70;95.11
75438;BME280;64015;49.392;15.582;2023-04-06T03:31:08;95961.31;;;-5.73;94.79
75438;BME280;64015;49.392;15.582;2023-04-06T03:33:33;95969.81;;;-5.72;94.31
75438;BME280;64015;49.392;15.582;2023-04-06T03:35:59;95976.25;;;-5.76;94.23
75438;BME280;64015;49.392;15.582;2023-04-06T03:38:25;95970.47;;;-5.78;94.54
75438;BME280;64015;49.392;15.582;2023-04-06T03:40:50;95971.75;;;-5.74;94.17
75438;BME280;64015;49.392;15.582;2023-04-06T03:43:16;95970.63;;;-5.80;94.08
75438;BME280;64015;49.392;15.582;2023-04-06T03:45:42;95968.06;;;-5.80;94.34
75438;BME280;64015;49.392;15.582;2023-04-06T03:48:08;95975.91;;;-5.81;94.03
75438;BME280;64015;49.392;15.582;2023-04-06T03:50:33;95976.56;;;-5.87;94.35
75438;BME280;64015;49.392;15.582;2023-04-06T03:52:59;95976.91;;;-5.90;94.93
75438;BME280;64015;49.392;15.582;2023-04-06T03:55:27;95986.22;;;-5.89;95.08
75438;BME280;64015;49.392;15.582;2023-04-06T03:57:52;95973.06;;;-5.94;95.17
75438;BME280;64015;49.392;15.582;2023-04-06T04:00:18;95977.56;;;-5.96;95.55
75438;BME280;64015;49.392;15.582;2023-04-06T04:02:44;95976.25;;;-6.00;95.12
75438;BME280;64015;49.392;15.582;2023-04-06T04:05:09;95981.88;;;-5.97;95.95
75438;BME280;64015;49.392;15.582;2023-04-06T04:07:35;95985.41;;;-5.98;95.93
75438;BME280;64015;49.392;15.582;2023-04-06T04:10:01;95980.44;;;-5.99;95.82
75438;BME280;64015;49.392;15.582;2023-04-06T04:12:26;95984.31;;;-5.95;95.45
75438;BME280;64015;49.392;15.582;2023-04-06T04:14:52;95980.94;;;-5.96;95.46
75438;BME280;64015;49.392;15.582;2023-04-06T04:17:18;95969.69;;;-6.03;95.46
75438;BME280;64015;49.392;15.582;2023-04-06T04:19:43;95983.81;;;-5.99;95.55
75438;BME280;64015;49.392;15.582;2023-04-06T04:22:09;95975.78;;;-6.04;95.66
75438;BME280;64015;49.392;15.582;2023-04-06T04:24:35;95978.53;;;-6.06;96.07
75438;BME280;64015;49.392;15.582;2023-04-06T04:27:01;95984.13;;;-6.02;95.74
75438;BME280;64015;49.392;15.582;2023-04-06T04:29:26;95976.25;;;-6.09;95.63
75438;BME280;64015;49.392;15.582;2023-04-06T04:31:52;95992.00;;;-6.04;95.57
75438;BME280;64015;49.392;15.582;2023-04-06T04:34:18;95980.13;;;-6.05;95.71
75438;BME280;64015;49.392;15.582;2023-04-06T04:36:51;95982.34;;;-6.02;95.59
75438;BME280;64015;49.392;15.582;2023-04-06T04:39:17;95981.88;;;-5.97;95.33
75438;BME280;64015;49.392;15.582;2023-04-06T04:41:46;95981.09;;;-5.97;95.34
75438;BME280;64015;49.392;15.582;2023-04-06T04:44:11;95986.88;;;-5.95;95.58
75438;BME280;64015;49.392;15.582;2023-04-06T04:46:38;95983.50;;;-5.96;95.13
75438;BME280;64015;49.392;15.582;2023-04-06T04:49:04;95991.22;;;-5.88;94.82
75438;BME280;64015;49.392;15.582;2023-04-06T04:51:30;95995.81;;;-5.83;94.87
75438;BME280;64015;49.392;15.582;2023-04-06T04:53:57;95986.84;;;-5.87;94.57
75438;BME280;64015;49.392;15.582;2023-04-06T04:56:23;95995.66;;;-5.82;95.01
75438;BME280;64015;49.392;15.582;2023-04-06T04:58:49;95999.53;;;-5.78;94.51
75438;BME280;64015;49.392;15.582;2023-04-06T05:01:15;96002.09;;;-5.78;94.82
75438;BME280;64015;49.392;15.582;2023-04-06T05:03:41;96003.38;;;-5.74;94.89
75438;BME280;64015;49.392;15.582;2023-04-06T05:06:07;96004.00;;;-5.64;94.88
75438;BME280;64015;49.392;15.582;2023-04-06T05:08:33;95999.53;;;-5.61;94.58
75438;BME280;64015;49.392;15.582;2023-04-06T05:10:59;96004.81;;;-5.55;94.25
75438;BME280;64015;49.392;15.582;2023-04-06T05:13:24;96011.56;;;-5.54;94.36
75438;BME280;64015;49.392;15.582;2023-04-06T05:15:50;96010.44;;;-5.43;94.46
75438;BME280;64015;49.392;15.582;2023-04-06T05:18:16;96003.53;;;-5.43;94.45
75438;BME280;64015;49.392;15.582;2023-04-06T05:20:42;96010.41;;;-5.35;94.73
75438;BME280;64015;49.392;15.582;2023-04-06T05:23:07;96005.09;;;-5.26;94.55
75438;BME280;64015;49.392;15.582;2023-04-06T05:25:33;96003.31;;;-5.17;93.83
75438;BME280;64015;49.392;15.582;2023-04-06T05:27:59;96007.31;;;-5.06;94.23
75438;BME280;64015;49.392;15.582;2023-04-06T05:30:25;96013.88;;;-4.96;93.72
75438;BME280;64015;49.392;15.582;2023-04-06T05:32:51;96019.16;;;-4.89;93.21
75438;BME280;64015;49.392;15.582;2023-04-06T05:35:17;96013.84;;;-4.79;92.51
75438;BME280;64015;49.392;15.582;2023-04-06T05:37:43;96006.28;;;-4.73;92.00
75438;BME280;64015;49.392;15.582;2023-04-06T05:40:09;96002.22;;;-4.67;92.24
75438;BME280;64015;49.392;15.582;2023-04-06T05:42:38;95993.66;;;-4.60;91.93
75438;BME280;64015;49.392;15.582;2023-04-06T05:45:05;96007.13;;;-4.49;91.66
75438;BME280;64015;49.392;15.582;2023-04-06T05:47:31;96009.03;;;-4.43;91.90
75438;BME280;64015;49.392;15.582;2023-04-06T05:49:57;96002.97;;;-4.20;91.34
75438;BME280;64015;49.392;15.582;2023-04-06T05:52:23;95995.81;;;-4.09;90.82
75438;BME280;64015;49.392;15.582;2023-04-06T05:54:49;96002.38;;;-4.07;90.99
75438;BME280;64015;49.392;15.582;2023-04-06T05:57:15;95999.09;;;-3.93;91.33
75438;BME280;64015;49.392;15.582;2023-04-06T05:59:42;96003.84;;;-3.82;91.04
75438;BME280;64015;49.392;15.582;2023-04-06T06:02:07;96001.47;;;-3.68;90.74
75438;BME280;64015;49.392;15.582;2023-04-06T06:04:33;95998.00;;;-3.53;89.63
75438;BME280;64015;49.392;15.582;2023-04-06T06:07:00;95994.16;;;-3.42;90.21
75438;BME280;64015;49.392;15.582;2023-04-06T06:09:26;96002.06;;;-3.21;89.23
75438;BME280;64015;49.392;15.582;2023-04-06T06:11:51;96001.72;;;-3.18;89.39
75438;BME280;64015;49.392;15.582;2023-04-06T06:14:17;95993.88;;;-3.10;89.45
75438;BME280;64015;49.392;15.582;2023-04-06T06:16:43;96005.94;;;-2.87;88.21
75438;BME280;64015;49.392;15.582;2023-04-06T06:19:09;95994.78;;;-2.73;88.00
75438;BME280;64015;49.392;15.582;2023-04-06T06:21:34;95992.63;;;-2.55;87.28
75438;BME280;64015;49.392;15.582;2023-04-06T06:24:09;95987.53;;;-2.34;85.94
75438;BME280;64015;49.392;15.582;2023-04-06T06:26:41;95998.38;;;-2.23;86.41
75438;BME280;64015;49.392;15.582;2023-04-06T06:29:08;95994.03;;;-2.02;85.14
75438;BME280;64015;49.392;15.582;2023-04-06T06:31:34;95995.50;;;-1.93;85.70
75438;BME280;64015;49.392;15.582;2023-04-06T06:34:00;95996.63;;;-1.80;85.08
75438;BME280;64015;49.392;15.582;2023-04-06T06:36:29;95996.69;;;-1.53;83.81
75438;BME280;64015;49.392;15.582;2023-04-06T06:38:57;95994.59;;;-1.42;83.58
75438;BME280;64015;49.392;15.582;2023-04-06T06:41:24;96005.09;;;-1.23;81.85
75438;BME280;64015;49.392;15.582;2023-04-06T06:43:51;95994.50;;;-1.00;80.06
75438;BME280;64015;49.392;15.582;2023-04-06T06:46:17;95987.56;;;-0.65;77.37
75438;BME280;64015;49.392;15.582;2023-04-06T06:48:43;95998.56;;;-0.56;77.03
75438;BME280;64015;49.392;15.582;2023-04-06T06:51:08;95997.16;;;-0.52;77.58
75438;BME280;64015;49.392;15.582;2023-04-06T06:53:35;96000.19;;;-0.42;76.49
75438;BME280;64015;49.392;15.582;2023-04-06T06:56:01;96007.19;;;-0.36;76.44
75438;BME280;64015;49.392;15.582;2023-04-06T06:58:26;95993.09;;;-0.27;75.84
75438;BME280;64015;49.392;15.582;2023-04-06T07:00:58;96004.31;;;-0.13;75.18
75438;BME280;64015;49.392;15.582;2023-04-06T07:03:25;95985.38;;;-0.07;75.67
75438;BME280;64015;49.392;15.582;2023-04-06T07:05:51;95995.78;;;0.06;74.73
75438;BME280;64015;49.392;15.582;2023-04-06T07:08:21;95992.63;;;0.24;74.03
75438;BME280;64015;49.392;15.582;2023-04-06T07:10:47;95991.88;;;0.36;72.59
75438;BME280;64015;49.392;15.582;2023-04-06T07:13:14;95991.88;;;0.50;72.49
75438;BME280;64015;49.392;15.582;2023-04-06T07:15:47;95995.47;;;0.49;72.76
75438;BME280;64015;49.392;15.582;2023-04-06T07:18:13;95990.06;;;0.50;72.43
75438;BME280;64015;49.392;15.582;2023-04-06T07:20:38;95996.28;;;0.75;73.25
75438;BME280;64015;49.392;15.582;2023-04-06T07:23:05;95998.28;;;0.87;72.56
75438;BME280;64015;49.392;15.582;2023-04-06T07:25:30;95999.44;;;1.04;71.04
75438;BME280;64015;49.392;15.582;2023-04-06T07:27:56;95979.25;;;1.19;68.70
75438;BME280;64015;49.392;15.582;2023-04-06T07:30:22;95989.84;;;1.18;67.60
75438;BME280;64015;49.392;15.582;2023-04-06T07:32:48;95986.41;;;1.30;68.70
75438;BME280;64015;49.392;15.582;2023-04-06T07:35:14;95990.75;;;1.56;66.69
75438;BME280;64015;49.392;15.582;2023-04-06T07:37:40;95986.91;;;1.72;64.22
75438;BME280;64015;49.392;15.582;2023-04-06T07:40:06;95986.25;;;1.83;62.04
75438;BME280;64015;49.392;15.582;2023-04-06T07:42:32;95989.97;;;2.00;61.19
75438;BME280;64015;49.392;15.582;2023-04-06T07:44:58;95985.53;;;2.07;61.55
75438;BME280;64015;49.392;15.582;2023-04-06T07:47:24;95983.88;;;2.19;60.66
75438;BME280;64015;49.392;15.582;2023-04-06T07:49:50;95988.09;;;2.14;59.81
75438;BME280;64015;49.392;15.582;2023-04-06T07:52:16;95989.41;;;2.30;59.89
75438;BME280;64015;49.392;15.582;2023-04-06T07:54:41;95988.84;;;2.52;61.46
75438;BME280;64015;49.392;15.582;2023-04-06T07:57:07;95985.44;;;2.52;59.97
75438;BME280;64015;49.392;15.582;2023-04-06T07:59:33;95983.84;;;2.57;59.25
75438;BME280;64015;49.392;15.582;2023-04-06T08:01:59;95981.09;;;2.71;57.17
75438;BME280;64015;49.392;15.582;2023-04-06T08:04:24;95978.56;;;2.89;58.76
75438;BME280;64015;49.392;15.582;2023-04-06T08:06:50;95977.63;;;2.83;55.48
75438;BME280;64015;49.392;15.582;2023-04-06T08:09:16;95982.09;;;2.76;56.36
75438;BME280;64015;49.392;15.582;2023-04-06T08:11:42;95976.53;;;2.91;56.67
75438;BME280;64015;49.392;15.582;2023-04-06T08:14:09;95987.66;;;3.05;56.65
75438;BME280;64015;49.392;15.582;2023-04-06T08:16:35;95981.75;;;2.91;53.64
75438;BME280;64015;49.392;15.582;2023-04-06T08:19:01;95981.75;;;2.91;53.88
75438;BME280;64015;49.392;15.582;2023-04-06T08:21:27;95976.94;;;2.94;54.91
75438;BME280;64015;49.392;15.582;2023-04-06T08:23:52;95984.91;;;3.18;55.01
75438;BME280;64015;49.392;15.582;2023-04-06T08:26:18;95973.25;;;3.02;51.88
75438;BME280;64015;49.392;15.582;2023-04-06T08:28:43;95979.88;;;3.23;53.96
75438;BME280;64015;49.392;15.582;2023-04-06T08:31:09;95987.25;;;3.44;52.62
75438;BME280;64015;49.392;15.582;2023-04-06T08:33:35;95973.41;;;3.44;51.98
75438;BME280;64015;49.392;15.582;2023-04-06T08:36:12;95973.94;;;3.52;52.75
75438;BME280;64015;49.392;15.582;2023-04-06T08:38:39;95970.75;;;3.87;52.13
75438;BME280;64015;49.392;15.582;2023-04-06T08:41:12;95975.81;;;3.82;50.54
75438;BME280;64015;49.392;15.582;2023-04-06T08:46:08;95970.66;;;4.23;50.98
75438;BME280;64015;49.392;15.582;2023-04-06T08:48:36;95964.69;;;4.34;49.19
75438;BME280;64015;49.392;15.582;2023-04-06T08:51:02;95968.88;;;4.35;49.93
75438;BME280;64015;49.392;15.582;2023-04-06T08:53:28;95962.88;;;4.46;49.42
75438;BME280;64015;49.392;15.582;2023-04-06T08:55:57;95961.78;;;4.54;48.62
75438;BME280;64015;49.392;15.582;2023-04-06T08:58:23;95962.97;;;5.05;47.53
75438;BME280;64015;49.392;15.582;2023-04-06T09:00:50;95964.13;;;5.09;46.61
75438;BME280;64015;49.392;15.582;2023-04-06T09:03:18;95962.84;;;4.88;45.59
75438;BME280;64015;49.392;15.582;2023-04-06T09:05:46;95968.88;;;5.35;46.90
75438;BME280;64015;49.392;15.582;2023-04-06T09:08:12;95964.78;;;4.81;45.64
75438;BME280;64015;49.392;15.582;2023-04-06T09:10:41;95961.38;;;5.15;45.54
75438;BME280;64015;49.392;15.582;2023-04-06T09:13:08;95967.38;;;5.51;45.47
75438;BME280;64015;49.392;15.582;2023-04-06T09:15:34;95965.16;;;5.83;46.18
75438;BME280;64015;49.392;15.582;2023-04-06T09:18:00;95964.75;;;6.03;46.39
75438;BME280;64015;49.392;15.582;2023-04-06T09:20:26;95959.50;;;5.62;44.58
75438;BME280;64015;49.392;15.582;2023-04-06T09:22:54;95961.06;;;5.75;44.94
75438;BME280;64015;49.392;15.582;2023-04-06T09:25:21;95965.75;;;5.73;43.17
75438;BME280;64015;49.392;15.582;2023-04-06T09:27:49;95961.25;;;5.97;44.98
75438;BME280;64015;49.392;15.582;2023-04-06T09:30:23;95950.00;;;5.96;46.21
75438;BME280;64015;49.392;15.582;2023-04-06T09:32:55;95967.69;;;6.18;45.72
75438;BME280;64015;49.392;15.582;2023-04-06T09:35:22;95960.88;;;6.05;44.23
75438;BME280;64015;49.392;15.582;2023-04-06T09:37:49;95953.75;;;6.01;44.28
75438;BME280;64015;49.392;15.582;2023-04-06T09:40:15;95952.38;;;5.98;44.84
75438;BME280;64015;49.392;15.582;2023-04-06T09:42:45;95951.59;;;5.86;43.44
75438;BME280;64015;49.392;15.582;2023-04-06T09:45:13;95957.63;;;5.86;43.58
75438;BME280;64015;49.392;15.582;2023-04-06T09:47:40;95957.75;;;5.16;43.88
75438;BME280;64015;49.392;15.582;2023-04-06T09:50:09;95960.72;;;5.08;44.82
75438;BME280;64015;49.392;15.582;2023-04-06T09:52:56;95962.63;;;5.36;44.37
75438;BME280;64015;49.392;15.582;2023-04-06T09:55:39;95958.44;;;5.75;42.94
75438;BME280;64015;49.392;15.582;2023-04-06T09:58:07;95948.44;;;5.72;40.74
75438;BME280;64015;49.392;15.582;2023-04-06T10:01:22;95944.28;;;5.99;42.42
75438;BME280;64015;49.392;15.582;2023-04-06T10:03:49;95952.75;;;5.78;42.44
75438;BME280;64015;49.392;15.582;2023-04-06T10:06:22;95942.44;;;5.48;43.76
75438;BME280;64015;49.392;15.582;2023-04-06T10:08:49;95935.53;;;5.54;43.91
75438;BME280;64015;49.392;15.582;2023-04-06T10:11:17;95946.25;;;5.81;43.83
75438;BME280;64015;49.392;15.582;2023-04-06T10:13:44;95950.19;;;6.07;44.57
75438;BME280;64015;49.392;15.582;2023-04-06T10:16:13;95939.88;;;6.45;42.37
75438;BME280;64015;49.392;15.582;2023-04-06T10:18:39;95952.53;;;6.82;39.13
75438;BME280;64015;49.392;15.582;2023-04-06T10:21:26;95940.53;;;7.02;38.80
75438;BME280;64015;49.392;15.582;2023-04-06T10:23:57;95942.72;;;7.10;37.53
75438;BME280;64015;49.392;15.582;2023-04-06T10:26:24;95948.69;;;6.56;37.71
75438;BME280;64015;49.392;15.582;2023-04-06T10:28:53;95934.78;;;6.55;39.85
75438;BME280;64015;49.392;15.582;2023-04-06T10:31:31;95950.66;;;7.16;39.96
75438;BME280;64015;49.392;15.582;2023-04-06T10:33:59;95941.00;;;6.83;39.59
75438;BME280;64015;49.392;15.582;2023-04-06T10:36:35;95927.88;;;6.99;37.46
75438;BME280;64015;49.392;15.582;2023-04-06T10:39:05;95928.44;;;7.40;36.17
75438;BME280;64015;49.392;15.582;2023-04-06T10:41:40;95913.59;;;8.43;35.82
75438;BME280;64015;49.392;15.582;2023-04-06T10:44:06;95922.81;;;8.77;34.83
75438;BME280;64015;49.392;15.582;2023-04-06T10:46:33;95900.34;;;8.96;34.77
75438;BME280;64015;49.392;15.582;2023-04-06T10:49:10;95915.03;;;8.92;35.11
75438;BME280;64015;49.392;15.582;2023-04-06T10:51:39;95917.19;;;9.43;34.35
75438;BME280;64015;49.392;15.582;2023-04-06T10:54:06;95915.84;;;9.40;34.21
75438;BME280;64015;49.392;15.582;2023-04-06T10:56:36;95919.72;;;9.85;33.65
75438;BME280;64015;49.392;15.582;2023-04-06T10:59:05;95918.34;;;10.70;33.74
75438;BME280;64015;49.392;15.582;2023-04-06T11:01:31;95918.47;;;10.02;31.76
75438;BME280;64015;49.392;15.582;2023-04-06T11:03:57;95920.38;;;9.50;33.86
75438;BME280;64015;49.392;15.582;2023-04-06T11:06:30;95911.19;;;9.52;33.52
75438;BME280;64015;49.392;15.582;2023-04-06T11:08:59;95900.66;;;10.85;31.03
75438;BME280;64015;49.392;15.582;2023-04-06T11:11:26;95914.41;;;10.72;31.90
75438;BME280;64015;49.392;15.582;2023-04-06T11:13:54;95893.41;;;9.95;33.85
75438;BME280;64015;49.392;15.582;2023-04-06T11:16:28;95897.38;;;9.30;34.84
75438;BME280;64015;49.392;15.582;2023-04-06T11:18:59;95913.34;;;8.76;36.63
75438;BME280;64015;49.392;15.582;2023-04-06T11:24:11;95904.97;;;11.81;30.80
75438;BME280;64015;49.392;15.582;2023-04-06T11:26:44;95893.59;;;12.69;27.98
75438;BME280;64015;49.392;15.582;2023-04-06T11:29:12;95884.66;;;12.89;28.70
75438;BME280;64015;49.392;15.582;2023-04-06T11:31:46;95896.03;;;11.57;29.83
75438;BME280;64015;49.392;15.582;2023-04-06T11:34:16;95887.16;;;11.28;30.11
75438;BME280;64015;49.392;15.582;2023-04-06T11:36:44;95875.63;;;9.55;32.22
75438;BME280;64015;49.392;15.582;2023-04-06T11:39:26;95880.81;;;10.12;31.79
75438;BME280;64015;49.392;15.582;2023-04-06T11:42:02;95878.91;;;12.82;29.95
75438;BME280;64015;49.392;15.582;2023-04-06T11:44:33;95894.31;;;13.37;27.82
75438;BME280;64015;49.392;15.582;2023-04-06T11:47:09;95891.16;;;12.39;28.38
75438;BME280;64015;49.392;15.582;2023-04-06T11:49:48;95891.13;;;12.05;28.50
75438;BME280;64015;49.392;15.582;2023-04-06T11:54:45;95878.41;;;13.37;26.29
75438;BME280;64015;49.392;15.582;2023-04-06T11:57:11;95860.50;;;15.58;26.10
75438;BME280;64015;49.392;15.582;2023-04-06T11:59:37;95869.34;;;13.43;26.90
75438;BME280;64015;49.392;15.582;2023-04-06T12:02:04;95879.97;;;12.08;29.21
75438;BME280;64015;49.392;15.582;2023-04-06T12:04:32;95866.31;;;10.04;32.46
75438;BME280;64015;49.392;15.582;2023-04-06T12:06:58;95880.31;;;11.11;29.57
75438;BME280;64015;49.392;15.582;2023-04-06T12:13:15;95875.59;;;13.95;26.27
75438;BME280;64015;49.392;15.582;2023-04-06T12:15:51;95858.66;;;12.67;27.96
75438;BME280;64015;49.392;15.582;2023-04-06T12:18:17;95865.81;;;12.66;27.92
75438;BME280;64015;49.392;15.582;2023-04-06T12:20:43;95850.13;;;11.48;28.81
75438;BME280;64015;49.392;15.582;2023-04-06T12:23:13;95862.56;;;12.75;27.00
75438;BME280;64015;49.392;15.582;2023-04-06T12:25:40;95851.69;;;13.58;26.02
75438;BME280;64015;49.392;15.582;2023-04-06T12:28:09;95838.44;;;14.70;23.65
75438;BME280;64015;49.392;15.582;2023-04-06T12:30:35;95848.69;;;15.78;23.02
75438;BME280;64015;49.392;15.582;2023-04-06T12:33:01;95846.88;;;14.21;26.03
75438;BME280;64015;49.392;15.582;2023-04-06T12:35:27;95851.81;;;12.95;28.10
75438;BME280;64015;49.392;15.582;2023-04-06T12:37:53;95840.25;;;12.18;28.98
75438;BME280;64015;49.392;15.582;2023-04-06T12:40:20;95851.56;;;11.79;29.70
75438;BME280;64015;49.392;15.582;2023-04-06T12:42:48;95842.56;;;11.06;31.08
75438;BME280;64015;49.392;15.582;2023-04-06T12:45:14;95839.41;;;10.02;31.80
75438;BME280;64015;49.392;15.582;2023-04-06T12:47:42;95835.53;;;12.49;29.40
75438;BME280;64015;49.392;15.582;2023-04-06T12:50:10;95827.97;;;14.60;27.07
75438;BME280;64015;49.392;15.582;2023-04-06T12:52:36;95838.50;;;14.98;25.32
75438;BME280;64015;49.392;15.582;2023-04-06T12:55:02;95826.94;;;14.05;25.53
75438;BME280;64015;49.392;15.582;2023-04-06T12:57:30;95841.38;;;15.42;24.50
75438;BME280;64015;49.392;15.582;2023-04-06T12:59:57;95832.75;;;15.37;25.81
75438;BME280;64015;49.392;15.582;2023-04-06T13:02:23;95819.91;;;15.11;25.94
75438;BME280;64015;49.392;15.582;2023-04-06T13:04:49;95837.56;;;14.75;26.33
75438;BME280;64015;49.392;15.582;2023-04-06T13:07:15;95829.47;;;12.77;28.20
75438;BME280;64015;49.392;15.582;2023-04-06T13:09:44;95825.72;;;11.66;29.05
75438;BME280;64015;49.392;15.582;2023-04-06T13:12:12;95830.03;;;11.42;29.48
75438;BME280;64015;49.392;15.582;2023-04-06T13:14:38;95825.44;;;10.88;31.19